Time,TemperatureF,DewpointF,PressureIn,WindDirection,WindDirectionDegrees,WindSpeedMPH,WindSpeedGustMPH,Humidity,HourlyPrecipIn,Conditions,Clouds,dailyrainin,SoftwareType,DateUTC
2013-09-03 00:00:00,81.3,75.3,29.75,WSW,256,0.0,0.0,82,0.00,CLR,,0.00,WeatherDisplay:10.37,2013-09-03 04:00:00,
2013-09-03 00:23:00,81.3,75.3,29.75,WSW,256,0.0,0.0,82,0.00,CLR,,0.00,WeatherDisplay:10.37,2013-09-03 04:23:00,
2013-09-03 01:00:00,81.3,75.3,29.75,WSW,256,0.0,0.0,82,0.00,CLR,,0.00,WeatherDisplay:10.37,2013-09-03 05:00:00,
2013-09-03 02:00:00,81.3,75.3,29.75,WSW,256,0.0,0.0,82,0.00,CLR,,0.00,WeatherDisplay:10.37,2013-09-03 06:00:00,
2013-09-03 03:00:00,81.3,75.3,29.75,WSW,256,0.0,0.0,82,0.00,CLR,,0.00,WeatherDisplay:10.37,2013-09-03 07:00:00,
2013-09-03 04:00:00,81.3,75.3,29.75,WSW,256,0.0,0.0,82,0.00,CLR,,0.00,WeatherDisplay:10.37,2013-09-03 08:00:00,
2013-09-03 05:00:00,81.3,75.3,29.75,WSW,256,0.0,0.0,82,0.00,CLR,,0.00,WeatherDisplay:10.37,2013-09-03 09:00:00,
2013-09-03 06:00:00,81.3,75.3,29.75,WSW,256,0.0,0.0,82,0.00,CLR,,0.00,WeatherDisplay:10.37,2013-09-03 10:00:00,
2013-09-03 07:00:00,81.3,75.3,29.75,WSW,256,0.0,0.0,82,0.00,CLR,,0.00,WeatherDisplay:10.37,2013-09-03 11:00:00,
2013-09-03 08:00:00,73.3,73.0,29.80,SW,220,0.0,0.0,99,0.01,,,0.01,WeatherDisplay:10.37,2013-09-03 12:00:00,
2013-09-03 09:00:00,75.8,74.6,29.82,West,265,1.0,4.0,96,0.00,,,0.01,WeatherDisplay:10.37,2013-09-03 13:00:00,
2013-09-03 10:00:00,78.5,74.6,29.81,SSW,204,0.0,6.0,88,0.00,,,0.01,WeatherDisplay:10.37,2013-09-03 14:00:00,
2013-09-03 11:00:00,81.1,74.0,29.82,WSW,251,0.0,6.0,79,0.00,CLR,,0.01,WeatherDisplay:10.37,2013-09-03 15:00:00,
2013-09-03 12:00:00,75.3,71.1,29.84,North,0,0.0,7.0,87,0.17,,,0.18,WeatherDisplay:10.37,2013-09-03 16:00:00,
2013-09-03 13:00:00,80.5,75.2,29.81,SW,232,0.0,4.0,84,0.00,,,0.18,WeatherDisplay:10.37,2013-09-03 17:00:00,
2013-09-03 14:00:00,85.2,75.2,29.79,SSW,203,0.0,4.0,72,0.00,CLR,,0.18,WeatherDisplay:10.37,2013-09-03 18:00:00,
2013-09-03 15:00:00,84.9,76.5,29.77,SSW,213,0.0,5.0,76,0.01,RA,,0.19,WeatherDisplay:10.37,2013-09-03 19:00:00,
2013-09-03 16:00:00,85.3,76.1,29.76,WSW,255,1.0,6.0,74,0.00,CLR,,0.19,WeatherDisplay:10.37,2013-09-03 20:00:00,
2013-09-03 17:00:00,85.1,74.2,29.76,NNW,342,0.0,7.0,70,0.00,CLR,,0.19,WeatherDisplay:10.37,2013-09-03 21:00:00,
2013-09-03 18:00:00,83.6,74.4,29.78,WSW,258,0.0,4.0,74,0.00,CLR,,0.19,WeatherDisplay:10.37,2013-09-03 22:00:00,
2013-09-03 19:00:00,81.4,73.5,29.80,ENE,57,0.0,5.0,77,0.00,CLR,,0.19,WeatherDisplay:10.37,2013-09-03 23:00:00,
2013-09-03 20:00:00,77.5,72.6,29.82,ENE,63,0.0,0.0,85,0.00,CLR,,0.19,WeatherDisplay:10.37,2013-09-04 00:00:00,
2013-09-03 21:00:00,75.0,72.2,29.84,ENE,63,0.0,0.0,91,0.00,,,0.19,WeatherDisplay:10.37,2013-09-04 01:00:00,
2013-09-03 22:00:00,73.9,72.0,29.87,ENE,63,0.0,0.0,94,0.00,,,0.19,WeatherDisplay:10.37,2013-09-04 02:00:00,
2013-09-03 23:00:00,73.3,71.5,29.87,ENE,63,0.0,0.0,94,0.00,,,0.19,WeatherDisplay:10.37,2013-09-04 03:00:00,